sensor_id;sensor_type;location;lat;lon;timestamp;pressure;altitude;pressure_sealevel;temperature;humidity
39141;BME280;24875;48.436;10.298;2023-04-27T13:40:48;96305.81;;;19.36;42.06
39141;BME280;24875;48.436;10.298;2023-04-27T13:43:15;96309.47;;;19.12;41.72
39141;BME280;24875;48.436;10.298;2023-04-27T13:45:41;96304.59;;;20.07;41.73
39141;BME280;24875;48.436;10.298;2023-04-27T13:48:09;96298.81;;;19.99;42.08
39141;BME280;24875;48.436;10.298;2023-04-27T13:50:35;96295.78;;;19.95;42.60
39141;BME280;24875;48.436;10.298;2023-04-27T13:53:02;96296.09;;;19.76;42.94
39141;BME280;24875;48.436;10.298;2023-04-27T13:55:28;96299.53;;;19.42;43.72
39141;BME280;24875;48.436;10.298;2023-04-27T13:57:56;96297.81;;;19.48;44.61
39141;BME280;24875;48.436;10.298;2023-04-27T14:00:23;96279.69;;;19.72;43.03
39141;BME280;24875;48.436;10.298;2023-04-27T14:02:50;96285.63;;;19.63;46.84
39141;BME280;24875;48.436;10.298;2023-04-27T14:05:16;96288.38;;;19.34;44.73
39141;BME280;24875;48.436;10.298;2023-04-27T14:07:43;96283.19;;;19.61;45.35
39141;BME280;24875;48.436;10.298;2023-04-27T14:10:10;96281.81;;;19.93;41.89
39141;BME280;24875;48.436;10.298;2023-04-27T14:12:36;96276.88;;;20.36;40.73
39141;BME280;24875;48.436;10.298;2023-04-27T14:15:05;96280.94;;;20.89;40.93
39141;BME280;24875;48.436;10.298;2023-04-27T14:17:31;96280.78;;;21.23;41.04
39141;BME280;24875;48.436;10.298;2023-04-27T14:19:58;96274.16;;;21.58;39.48
39141;BME280;24875;48.436;10.298;2023-04-27T14:22:25;96277.13;;;21.01;39.72
39141;BME280;24875;48.436;10.298;2023-04-27T14:24:51;96276.25;;;21.89;40.51
39141;BME280;24875;48.436;10.298;2023-04-27T14:27:18;96275.09;;;22.02;38.34
39141;BME280;24875;48.436;10.298;2023-04-27T14:29:44;96270.25;;;21.99;40.93
39141;BME280;24875;48.436;10.298;2023-04-27T14:32:12;96280.78;;;22.21;39.49
39141;BME280;24875;48.436;10.298;2023-04-27T14:34:39;96276.31;;;22.48;42.58
39141;BME280;24875;48.436;10.298;2023-04-27T14:37:05;96277.13;;;22.70;38.69
39141;BME280;24875;48.436;10.298;2023-04-27T14:39:32;96271.06;;;23.01;38.88
39141;BME280;24875;48.436;10.298;2023-04-27T14:41:58;96276.91;;;21.96;38.79
39141;BME280;24875;48.436;10.298;2023-04-27T14:44:25;96275.59;;;21.99;38.06
39141;BME280;24875;48.436;10.298;2023-04-27T14:46:51;96274.72;;;21.93;38.17
39141;BME280;24875;48.436;10.298;2023-04-27T14:49:19;96272.81;;;22.69;37.71
39141;BME280;24875;48.436;10.298;2023-04-27T14:51:46;96275.13;;;21.85;36.40
39141;BME280;24875;48.436;10.298;2023-04-27T14:54:12;96270.25;;;21.99;37.41
39141;BME280;24875;48.436;10.298;2023-04-27T14:56:39;96263.69;;;22.27;37.81
39141;BME280;24875;48.436;10.298;2023-04-27T14:59:05;96273.31;;;22.45;38.12
39141;BME280;24875;48.436;10.298;2023-04-27T15:01:32;96272.22;;;22.62;37.25
39141;BME280;24875;48.436;10.298;2023-04-27T15:03:58;96272.50;;;20.97;38.66
39141;BME280;24875;48.436;10.298;2023-04-27T15:06:26;96268.59;;;20.37;42.45
39141;BME280;24875;48.436;10.298;2023-04-27T15:08:54;96279.56;;;21.47;39.14
39141;BME280;24875;48.436;10.298;2023-04-27T15:11:21;96275.94;;;21.53;40.52
39141;BME280;24875;48.436;10.298;2023-04-27T15:13:48;96276.13;;;20.91;40.14
39141;BME280;24875;48.436;10.298;2023-04-27T15:16:14;96278.97;;;21.56;39.05
39141;BME280;24875;48.436;10.298;2023-04-27T15:18:41;96291.81;;;20.71;40.08
39141;BME280;24875;48.436;10.298;2023-04-27T15:21:07;96286.00;;;20.12;41.77
39141;BME280;24875;48.436;10.298;2023-04-27T15:23:35;96285.56;;;20.04;41.77
39141;BME280;24875;48.436;10.298;2023-04-27T15:26:02;96281.56;;;19.83;41.32
39141;BME280;24875;48.436;10.298;2023-04-27T15:28:28;96280.63;;;19.78;40.81
39141;BME280;24875;48.436;10.298;2023-04-27T15:30:57;96280.41;;;20.64;40.56
39141;BME280;24875;48.436;10.298;2023-04-27T15:33:24;96276.13;;;20.52;38.43
39141;BME280;24875;48.436;10.298;2023-04-27T15:35:51;96271.22;;;20.99;38.67
39141;BME280;24875;48.436;10.298;2023-04-27T15:38:18;96276.28;;;21.12;38.85
39141;BME280;24875;48.436;10.298;2023-04-27T15:40:46;96272.81;;;21.44;39.55
39141;BME280;24875;48.436;10.298;2023-04-27T15:43:13;96271.06;;;20.78;39.27
39141;BME280;24875;48.436;10.298;2023-04-27T15:45:40;96271.03;;;20.89;40.73
39141;BME280;24875;48.436;10.298;2023-04-27T15:48:08;96275.28;;;20.74;40.68
39141;BME280;24875;48.436;10.298;2023-04-27T15:50:35;96270.69;;;20.47;41.00
39141;BME280;24875;48.436;10.298;2023-04-27T15:53:02;96264.97;;;20.55;40.79
39141;BME280;24875;48.436;10.298;2023-04-27T15:55:28;96263.91;;;19.94;41.47
39141;BME280;24875;48.436;10.298;2023-04-27T15:57:56;96263.88;;;19.82;41.63
39141;BME280;24875;48.436;10.298;2023-04-27T16:00:22;96269.00;;;19.61;43.90
39141;BME280;24875;48.436;10.298;2023-04-27T16:02:49;96265.69;;;19.13;43.51
39141;BME280;24875;48.436;10.298;2023-04-27T16:05:16;96272.31;;;18.93;44.99
39141;BME280;24875;48.436;10.298;2023-04-27T16:07:43;96261.75;;;18.87;44.24
39141;BME280;24875;48.436;10.298;2023-04-27T16:10:10;96268.06;;;18.74;45.06
39141;BME280;24875;48.436;10.298;2023-04-27T16:12:36;96257.75;;;18.13;46.26
39141;BME280;24875;48.436;10.298;2023-04-27T16:15:05;96249.06;;;18.53;45.66
39141;BME280;24875;48.436;10.298;2023-04-27T16:17:33;96254.16;;;19.13;44.63
39141;BME280;24875;48.436;10.298;2023-04-27T16:20:01;96243.13;;;20.35;42.23
39141;BME280;24875;48.436;10.298;2023-04-27T16:22:30;96240.34;;;21.41;39.02
39141;BME280;24875;48.436;10.298;2023-04-27T16:24:56;96238.88;;;21.34;39.05
39141;BME280;24875;48.436;10.298;2023-04-27T16:27:24;96240.88;;;21.27;39.22
39141;BME280;24875;48.436;10.298;2023-04-27T16:29:50;96234.34;;;22.42;37.10
39141;BME280;24875;48.436;10.298;2023-04-27T16:32:18;96236.38;;;22.14;36.69
39141;BME280;24875;48.436;10.298;2023-04-27T16:34:45;96239.97;;;22.62;36.26
39141;BME280;24875;48.436;10.298;2023-04-27T16:37:11;96236.78;;;23.44;34.66
39141;BME280;24875;48.436;10.298;2023-04-27T16:39:38;96230.31;;;24.58;32.59
39141;BME280;24875;48.436;10.298;2023-04-27T16:42:04;96228.09;;;25.61;30.84
39141;BME280;24875;48.436;10.298;2023-04-27T16:44:31;96237.16;;;26.49;30.45
39141;BME280;24875;48.436;10.298;2023-04-27T16:46:57;96230.34;;;26.67;29.55
39141;BME280;24875;48.436;10.298;2023-04-27T16:49:25;96237.03;;;25.86;30.15
39141;BME280;24875;48.436;10.298;2023-04-27T16:51:51;96237.81;;;25.47;32.49
39141;BME280;24875;48.436;10.298;2023-04-27T16:54:18;96236.66;;;25.09;32.90
39141;BME280;24875;48.436;10.298;2023-04-27T16:56:45;96243.88;;;23.86;34.92
39141;BME280;24875;48.436;10.298;2023-04-27T16:59:12;96235.63;;;24.44;34.79
39141;BME280;24875;48.436;10.298;2023-04-27T17:01:38;96232.47;;;24.61;34.66
39141;BME280;24875;48.436;10.298;2023-04-27T17:04:05;96236.97;;;25.22;34.28
39141;BME280;24875;48.436;10.298;2023-04-27T17:06:32;96223.78;;;25.95;33.01
39141;BME280;24875;48.436;10.298;2023-04-27T17:08:59;96221.72;;;26.55;32.29
39141;BME280;24875;48.436;10.298;2023-04-27T17:11:26;96222.75;;;27.27;31.97
39141;BME280;24875;48.436;10.298;2023-04-27T17:13:52;96228.03;;;28.08;31.59
39141;BME280;24875;48.436;10.298;2023-04-27T17:16:19;96228.31;;;27.40;30.00
39141;BME280;24875;48.436;10.298;2023-04-27T17:18:46;96231.31;;;27.77;30.72
39141;BME280;24875;48.436;10.298;2023-04-27T17:21:12;96220.53;;;28.52;28.21
39141;BME280;24875;48.436;10.298;2023-04-27T17:23:40;96228.28;;;29.23;27.95
39141;BME280;24875;48.436;10.298;2023-04-27T17:26:07;96242.84;;;29.14;26.78
39141;BME280;24875;48.436;10.298;2023-04-27T17:28:34;96229.63;;;27.81;28.43
39141;BME280;24875;48.436;10.298;2023-04-27T17:31:00;96236.72;;;26.96;30.58
39141;BME280;24875;48.436;10.298;2023-04-27T17:33:27;96229.13;;;26.25;31.41
39141;BME280;24875;48.436;10.298;2023-04-27T17:35:53;96234.56;;;25.90;32.37
39141;BME280;24875;48.436;10.298;2023-04-27T17:38:20;96225.69;;;25.80;32.17
39141;BME280;24875;48.436;10.298;2023-04-27T17:40:47;96235.13;;;25.42;32.28
39141;BME280;24875;48.436;10.298;2023-04-27T17:43:14;96225.53;;;24.24;34.57
39141;BME280;24875;48.436;10.298;2023-04-27T17:45:40;96229.38;;;22.77;37.32
39141;BME280;24875;48.436;10.298;2023-04-27T17:48:07;96229.16;;;21.60;39.89
39141;BME280;24875;48.436;10.298;2023-04-27T17:50:33;96227.00;;;20.58;42.57
39141;BME280;24875;48.436;10.298;2023-04-27T17:53:01;96234.22;;;19.50;44.77
39141;BME280;24875;48.436;10.298;2023-04-27T17:55:28;96238.25;;;19.18;47.43
39141;BME280;24875;48.436;10.298;2023-04-27T17:57:55;96240.38;;;18.87;58.17
39141;BME280;24875;48.436;10.298;2023-04-27T18:00:22;96234.88;;;18.23;57.36
39141;BME280;24875;48.436;10.298;2023-04-27T18:02:48;96228.84;;;17.92;58.96
39141;BME280;24875;48.436;10.298;2023-04-27T18:05:15;96245.16;;;17.42;60.74
39141;BME280;24875;48.436;10.298;2023-04-27T18:07:42;96243.25;;;16.94;63.11
39141;BME280;24875;48.436;10.298;2023-04-27T18:10:10;96244.59;;;16.41;65.76
39141;BME280;24875;48.436;10.298;2023-04-27T18:12:36;96248.41;;;16.08;66.49
39141;BME280;24875;48.436;10.298;2023-04-27T18:15:05;96241.91;;;15.97;66.46
39141;BME280;24875;48.436;10.298;2023-04-27T18:17:32;96249.94;;;15.65;67.40
39141;BME280;24875;48.436;10.298;2023-04-27T18:19:58;96246.53;;;15.45;67.47
39141;BME280;24875;48.436;10.298;2023-04-27T18:22:29;96243.47;;;15.29;66.67
39141;BME280;24875;48.436;10.298;2023-04-27T18:24:56;96255.31;;;14.94;66.55
39141;BME280;24875;48.436;10.298;2023-04-27T18:27:23;96252.19;;;14.65;67.41
39141;BME280;24875;48.436;10.298;2023-04-27T18:29:49;96255.22;;;14.56;67.62
39141;BME280;24875;48.436;10.298;2023-04-27T18:32:18;96244.19;;;14.52;68.41
39141;BME280;24875;48.436;10.298;2023-04-27T18:34:44;96239.69;;;14.40;69.33
39141;BME280;24875;48.436;10.298;2023-04-27T18:37:11;96241.28;;;14.34;70.40
39141;BME280;24875;48.436;10.298;2023-04-27T18:39:37;96241.97;;;14.02;73.31
39141;BME280;24875;48.436;10.298;2023-04-27T18:42:04;96247.81;;;13.85;73.98
39141;BME280;24875;48.436;10.298;2023-04-27T18:44:30;96242.72;;;13.84;73.24
39141;BME280;24875;48.436;10.298;2023-04-27T18:46:57;96248.81;;;13.84;72.96
39141;BME280;24875;48.436;10.298;2023-04-27T18:49:25;96247.50;;;13.67;73.86
39141;BME280;24875;48.436;10.298;2023-04-27T18:51:51;96253.31;;;13.50;74.07
39141;BME280;24875;48.436;10.298;2023-04-27T18:54:18;96264.44;;;13.39;75.02
39141;BME280;24875;48.436;10.298;2023-04-27T18:56:45;96264.81;;;13.09;76.27
39141;BME280;24875;48.436;10.298;2023-04-27T18:59:17;96268.13;;;12.90;78.18
39141;BME280;24875;48.436;10.298;2023-04-27T19:01:43;96261.94;;;12.83;78.97
39141;BME280;24875;48.436;10.298;2023-04-27T19:04:10;96267.06;;;12.70;81.01
39141;BME280;24875;48.436;10.298;2023-04-27T19:06:38;96266.81;;;12.65;80.23
39141;BME280;24875;48.436;10.298;2023-04-27T19:09:04;96273.72;;;12.80;78.91
39141;BME280;24875;48.436;10.298;2023-04-27T19:11:33;96271.75;;;12.89;80.13
39141;BME280;24875;48.436;10.298;2023-04-27T19:14:00;96268.50;;;12.87;80.96
39141;BME280;24875;48.436;10.298;2023-04-27T19:16:26;96269.97;;;12.75;81.57
39141;BME280;24875;48.436;10.298;2023-04-27T19:18:53;96272.31;;;12.64;81.62
39141;BME280;24875;48.436;10.298;2023-04-27T19:21:19;96281.13;;;12.71;81.47
39141;BME280;24875;48.436;10.298;2023-04-27T19:23:47;96281.75;;;12.73;82.07
39141;BME280;24875;48.436;10.298;2023-04-27T19:26:13;96279.22;;;12.65;82.15
39141;BME280;24875;48.436;10.298;2023-04-27T19:28:40;96276.91;;;12.55;82.04
39141;BME280;24875;48.436;10.298;2023-04-27T19:31:06;96275.75;;;12.43;82.23
39141;BME280;24875;48.436;10.298;2023-04-27T19:33:34;96272.84;;;12.38;81.57
39141;BME280;24875;48.436;10.298;2023-04-27T19:36:00;96284.00;;;12.55;81.33
39141;BME280;24875;48.436;10.298;2023-04-27T19:38:27;96274.38;;;12.47;81.72
39141;BME280;24875;48.436;10.298;2023-04-27T19:40:55;96270.78;;;12.55;81.16
39141;BME280;24875;48.436;10.298;2023-04-27T19:43:22;96273.63;;;12.32;82.17
39141;BME280;24875;48.436;10.298;2023-04-27T19:45:48;96279.03;;;12.10;83.03
39141;BME280;24875;48.436;10.298;2023-04-27T19:48:15;96286.16;;;12.10;82.82
39141;BME280;24875;48.436;10.298;2023-04-27T19:50:41;96285.44;;;11.87;84.39
39141;BME280;24875;48.436;10.298;2023-04-27T19:53:09;96280.34;;;11.85;84.14
39141;BME280;24875;48.436;10.298;2023-04-27T19:55:35;96275.25;;;11.84;83.82
39141;BME280;24875;48.436;10.298;2023-04-27T19:58:04;96276.88;;;11.99;84.04
39141;BME280;24875;48.436;10.298;2023-04-27T20:00:31;96269.50;;;11.95;84.91
39141;BME280;24875;48.436;10.298;2023-04-27T20:02:57;96282.59;;;12.03;84.75
39141;BME280;24875;48.436;10.298;2023-04-27T20:05:24;96279.34;;;12.01;85.82
39141;BME280;24875;48.436;10.298;2023-04-27T20:07:51;96281.63;;;11.89;84.80
39141;BME280;24875;48.436;10.298;2023-04-27T20:10:17;96271.78;;;11.98;84.34
39141;BME280;24875;48.436;10.298;2023-04-27T20:12:43;96270.78;;;11.84;85.89
39141;BME280;24875;48.436;10.298;2023-04-27T20:15:11;96269.16;;;11.83;86.88
39141;BME280;24875;48.436;10.298;2023-04-27T20:17:38;96273.72;;;11.75;86.19
39141;BME280;24875;48.436;10.298;2023-04-27T20:20:06;96273.28;;;11.57;88.66
39141;BME280;24875;48.436;10.298;2023-04-27T20:22:34;96274.44;;;11.55;88.37
39141;BME280;24875;48.436;10.298;2023-04-27T20:25:01;96271.91;;;11.61;87.86
39141;BME280;24875;48.436;10.298;2023-04-27T20:27:28;96271.63;;;11.56;88.43
39141;BME280;24875;48.436;10.298;2023-04-27T20:29:55;96262.94;;;11.33;89.07
39141;BME280;24875;48.436;10.298;2023-04-27T20:32:22;96261.72;;;11.21;90.79
39141;BME280;24875;48.436;10.298;2023-04-27T20:34:49;96250.84;;;11.24;90.96
39141;BME280;24875;48.436;10.298;2023-04-27T20:37:15;96251.31;;;11.42;90.31
39141;BME280;24875;48.436;10.298;2023-04-27T20:39:42;96251.50;;;11.55;90.14
39141;BME280;24875;48.436;10.298;2023-04-27T20:42:08;96248.28;;;11.45;89.61
39141;BME280;24875;48.436;10.298;2023-04-27T20:44:36;96251.03;;;11.52;89.84
39141;BME280;24875;48.436;10.298;2023-04-27T20:47:03;96252.97;;;11.57;89.59
39141;BME280;24875;48.436;10.298;2023-04-27T20:49:31;96253.34;;;11.55;89.02
39141;BME280;24875;48.436;10.298;2023-04-27T20:51:57;96248.94;;;11.47;89.09
39141;BME280;24875;48.436;10.298;2023-04-27T20:54:23;96250.13;;;11.45;89.49
39141;BME280;24875;48.436;10.298;2023-04-27T20:56:50;96247.78;;;11.50;89.23
39141;BME280;24875;48.436;10.298;2023-04-27T20:59:16;96244.00;;;11.44;88.96
39141;BME280;24875;48.436;10.298;2023-04-27T21:01:43;96244.25;;;11.57;89.16
39141;BME280;24875;48.436;10.298;2023-04-27T21:04:09;96241.84;;;11.33;90.79
39141;BME280;24875;48.436;10.298;2023-04-27T21:06:37;96237.53;;;11.47;90.59
39141;BME280;24875;48.436;10.298;2023-04-27T21:09:03;96237.56;;;11.32;91.07
39141;BME280;24875;48.436;10.298;2023-04-27T21:11:30;96239.47;;;11.38;90.00
39141;BME280;24875;48.436;10.298;2023-04-27T21:13:56;96235.66;;;11.41;90.24
39141;BME280;24875;48.436;10.298;2023-04-27T21:16:23;96234.81;;;11.40;90.62
39141;BME280;24875;48.436;10.298;2023-04-27T21:18:49;96240.00;;;11.34;91.05
39141;BME280;24875;48.436;10.298;2023-04-27T21:21:15;96237.19;;;11.35;91.02
39141;BME280;24875;48.436;10.298;2023-04-27T21:23:43;96245.94;;;11.36;91.43
39141;BME280;24875;48.436;10.298;2023-04-27T21:26:10;96233.72;;;11.35;91.42
39141;BME280;24875;48.436;10.298;2023-04-27T21:28:36;96231.47;;;11.32;92.14
39141;BME280;24875;48.436;10.298;2023-04-27T21:31:04;96230.56;;;11.39;91.64
39141;BME280;24875;48.436;10.298;2023-04-27T21:33:30;96223.66;;;11.38;91.43
39141;BME280;24875;48.436;10.298;2023-04-27T21:35:57;96217.09;;;11.34;91.45
39141;BME280;24875;48.436;10.298;2023-04-27T21:38:24;96219.19;;;11.39;91.54
39141;BME280;24875;48.436;10.298;2023-04-27T21:40:52;96223.91;;;11.43;91.44
39141;BME280;24875;48.436;10.298;2023-04-27T21:43:18;96223.00;;;11.36;92.17
39141;BME280;24875;48.436;10.298;2023-04-27T21:45:45;96221.34;;;11.35;91.87
39141;BME280;24875;48.436;10.298;2023-04-27T21:48:11;96215.38;;;11.27;92.68
39141;BME280;24875;48.436;10.298;2023-04-27T21:50:38;96220.63;;;11.27;92.46
39141;BME280;24875;48.436;10.298;2023-04-27T21:53:04;96212.91;;;11.25;92.47
39141;BME280;24875;48.436;10.298;2023-04-27T21:55:30;96221.09;;;11.30;92.50
39141;BME280;24875;48.436;10.298;2023-04-27T21:57:58;96224.34;;;11.32;92.88
39141;BME280;24875;48.436;10.298;2023-04-27T22:00:25;96215.56;;;11.25;92.88
39141;BME280;24875;48.436;10.298;2023-04-27T22:02:51;96217.16;;;11.26;92.24
39141;BME280;24875;48.436;10.298;2023-04-27T22:05:18;96210.34;;;11.17;92.08
39141;BME280;24875;48.436;10.298;2023-04-27T22:07:45;96204.06;;;11.18;92.38
39141;BME280;24875;48.436;10.298;2023-04-27T22:10:12;96198.34;;;11.15;92.37
39141;BME280;24875;48.436;10.298;2023-04-27T22:12:38;96195.44;;;11.10;92.30
39141;BME280;24875;48.436;10.298;2023-04-27T22:15:07;96198.19;;;11.16;92.69
39141;BME280;24875;48.436;10.298;2023-04-27T22:17:34;96197.97;;;11.03;93.27
39141;BME280;24875;48.436;10.298;2023-04-27T22:20:05;96196.16;;;10.90;94.05
39141;BME280;24875;48.436;10.298;2023-04-27T22:22:33;96199.03;;;10.94;93.95
39141;BME280;24875;48.436;10.298;2023-04-27T22:24:59;96194.78;;;10.93;93.68
39141;BME280;24875;48.436;10.298;2023-04-27T22:27:26;96204.78;;;10.84;94.08
39141;BME280;24875;48.436;10.298;2023-04-27T22:29:52;96201.84;;;10.79;94.94
39141;BME280;24875;48.436;10.298;2023-04-27T22:32:20;96196.50;;;10.87;94.48
39141;BME280;24875;48.436;10.298;2023-04-27T22:34:46;96205.28;;;10.79;94.62
39141;BME280;24875;48.436;10.298;2023-04-27T22:37:13;96195.50;;;10.88;94.00
39141;BME280;24875;48.436;10.298;2023-04-27T22:39:39;96203.13;;;10.83;94.62
39141;BME280;24875;48.436;10.298;2023-04-27T22:42:06;96200.97;;;10.86;94.21
39141;BME280;24875;48.436;10.298;2023-04-27T22:44:32;96203.22;;;10.89;94.70
39141;BME280;24875;48.436;10.298;2023-04-27T22:46:58;96191.22;;;10.87;95.36
39141;BME280;24875;48.436;10.298;2023-04-27T22:49:27;96184.06;;;10.95;95.19
39141;BME280;24875;48.436;10.298;2023-04-27T22:51:54;96185.84;;;10.94;94.57
39141;BME280;24875;48.436;10.298;2023-04-27T22:54:21;96190.13;;;10.95;95.51
39141;BME280;24875;48.436;10.298;2023-04-27T22:56:48;96191.69;;;10.90;95.79
39141;BME280;24875;48.436;10.298;2023-04-27T22:59:14;96193.78;;;10.94;96.60
39141;BME280;24875;48.436;10.298;2023-04-27T23:01:46;96194.91;;;10.63;98.71
39141;BME280;24875;48.436;10.298;2023-04-27T23:04:13;96198.56;;;10.77;97.96
39141;BME280;24875;48.436;10.298;2023-04-27T23:06:41;96196.94;;;10.76;99.43
39141;BME280;24875;48.436;10.298;2023-04-27T23:09:07;96197.75;;;10.76;99.32
39141;BME280;24875;48.436;10.298;2023-04-27T23:11:34;96198.13;;;10.73;98.79
39141;BME280;24875;48.436;10.298;2023-04-27T23:14:00;96198.34;;;10.64;100.00
39141;BME280;24875;48.436;10.298;2023-04-27T23:16:27;96199.72;;;10.74;99.20
39141;BME280;24875;48.436;10.298;2023-04-27T23:18:54;96199.59;;;10.76;98.72
39141;BME280;24875;48.436;10.298;2023-04-27T23:21:21;96202.22;;;10.76;99.03
39141;BME280;24875;48.436;10.298;2023-04-27T23:23:49;96195.22;;;10.83;98.60
39141;BME280;24875;48.436;10.298;2023-04-27T23:26:15;96199.22;;;10.79;97.79
39141;BME280;24875;48.436;10.298;2023-04-27T23:28:42;96196.66;;;10.71;96.56
39141;BME280;24875;48.436;10.298;2023-04-27T23:31:08;96196.56;;;10.64;96.80
39141;BME280;24875;48.436;10.298;2023-04-27T23:33:35;96194.44;;;10.60;99.42
39141;BME280;24875;48.436;10.298;2023-04-27T23:36:02;96189.91;;;10.54;99.92
39141;BME280;24875;48.436;10.298;2023-04-27T23:38:29;96190.00;;;10.60;99.82
39141;BME280;24875;48.436;10.298;2023-04-27T23:40:57;96200.75;;;10.73;98.59
39141;BME280;24875;48.436;10.298;2023-04-27T23:43:23;96199.72;;;10.60;97.42
39141;BME280;24875;48.436;10.298;2023-04-27T23:45:51;96200.19;;;10.63;97.44
39141;BME280;24875;48.436;10.298;2023-04-27T23:48:18;96209.66;;;10.50;99.01
39141;BME280;24875;48.436;10.298;2023-04-27T23:50:44;96207.00;;;10.58;97.73
39141;BME280;24875;48.436;10.298;2023-04-27T23:53:11;96202.69;;;10.42;97.35
39141;BME280;24875;48.436;10.298;2023-04-27T23:55:37;96206.47;;;10.40;96.90
39141;BME280;24875;48.436;10.298;2023-04-27T23:58:05;96205.72;;;10.32;99.04
